Time;durP1;ratioP1;P1;durP2;ratioP2;P2;SDS_P1;SDS_P2;PMS_P1;PMS_P2;Temp;Humidity;BMP_temperature;BMP_pressure;BME280_temperature;BME280_humidity;BME280_pressure;Samples;Min_cycle;Max_cycle;Signal;HPM_P1;HPM_P2
2023/11/14 08:58:04;;;;;;;;;;;;;;;7.86;100.00;99128.44;6235372;22;19974;-89
2023/11/14 09:00:30;;;;;;;;;;;;;;;7.95;100.00;99135.97;6244531;23;19923;-88
2023/11/14 09:02:55;;;;;;;;;;;;;;;8.06;100.00;99128.44;6244072;23;19912;-88
2023/11/14 09:05:21;;;;;;;;;;;;;;;8.31;100.00;99145.84;6245647;23;19912;-89
2023/11/14 09:07:49;;;;;;;;;;;;;;;8.06;100.00;99138.13;6217473;23;19915;-92
2023/11/14 09:10:14;;;;;;;;;;;;;;;7.88;100.00;99137.13;6245694;23;20278;-87
2023/11/14 09:12:40;;;;;;;;;;;;;;;7.68;100.00;99140.59;6245160;23;19926;-86
2023/11/14 09:15:05;;;;;;;;;;;;;;;7.95;100.00;99128.88;6247531;23;19951;-84
2023/11/14 09:20:05;;;;;;;;;;;;;;;10.20;100.00;99151.91;6281660;22;20014;-93
2023/11/14 09:22:31;;;;;;;;;;;;;;;9.32;100.00;99152.72;6252699;22;19919;-88
2023/11/14 09:24:56;;;;;;;;;;;;;;;8.93;100.00;99143.97;6278242;22;19911;-93
2023/11/14 09:27:22;;;;;;;;;;;;;;;8.86;100.00;99143.41;6277129;22;19921;-87
2023/11/14 09:32:51;;;;;;;;;;;;;;;14.47;100.00;99141.50;6277879;22;19984;-88
2023/11/14 09:35:21;;;;;;;;;;;;;;;14.20;100.00;99137.13;6278137;22;19915;-92
2023/11/14 09:37:47;;;;;;;;;;;;;;;11.56;100.00;99156.09;6277264;22;20250;-88
2023/11/14 09:40:17;;;;;;;;;;;;;;;9.41;100.00;99170.81;6277433;22;19916;-87
2023/11/14 09:42:42;;;;;;;;;;;;;;;8.75;100.00;99187.94;6249368;22;19986;-84
2023/11/14 09:45:10;;;;;;;;;;;;;;;8.47;100.00;99183.00;6277693;22;19939;-86
2023/11/14 09:47:36;;;;;;;;;;;;;;;8.05;100.00;99197.97;6277329;22;19912;-85
2023/11/14 09:50:01;;;;;;;;;;;;;;;8.06;100.00;99204.97;6249114;22;20237;-85
2023/11/14 09:52:28;;;;;;;;;;;;;;;7.93;100.00;99209.88;6276898;22;19911;-85
2023/11/14 09:54:53;;;;;;;;;;;;;;;7.91;100.00;99202.94;6277162;22;19911;-85
2023/11/14 09:57:19;;;;;;;;;;;;;;;7.86;100.00;99207.56;6275803;22;20319;-91
2023/11/14 09:59:45;;;;;;;;;;;;;;;7.78;100.00;99211.34;6277102;22;19945;-86
2023/11/14 10:02:10;;;;;;;;;;;;;;;7.90;100.00;99203.88;6277255;22;19945;-85
2023/11/14 10:04:37;;;;;;;;;;;;;;;7.84;100.00;99196.22;6277087;22;19938;-87
2023/11/14 10:07:03;;;;;;;;;;;;;;;7.93;100.00;99188.78;6277276;22;19930;-86
2023/11/14 10:09:28;;;;;;;;;;;;;;;7.88;100.00;99189.88;6277187;22;19945;-86
2023/11/14 10:11:54;;;;;;;;;;;;;;;7.80;100.00;99185.78;6275503;22;20316;-87
2023/11/14 10:14:19;;;;;;;;;;;;;;;7.69;100.00;99185.38;6277374;22;19911;-85
2023/11/14 10:16:55;;;;;;;;;;;;;;;7.85;100.00;99180.34;6277106;22;19915;-82
2023/11/14 10:19:20;;;;;;;;;;;;;;;7.69;100.00;99148.47;6277013;22;19937;-86
2023/11/14 10:21:46;;;;;;;;;;;;;;;7.69;100.00;99137.91;6276417;22;19990;-88
2023/11/14 10:24:12;;;;;;;;;;;;;;;7.72;100.00;99129.88;6275847;22;19915;-83
2023/11/14 10:26:47;;;;;;;;;;;;;;;13.61;100.00;99130.38;6275623;22;19978;-87
2023/11/14 10:29:15;;;;;;;;;;;;;;;10.29;100.00;99119.69;6276838;22;20347;-84
2023/11/14 10:31:47;;;;;;;;;;;;;;;9.00;100.00;99123.38;6276578;22;19911;-90
2023/11/14 10:34:26;;;;;;;;;;;;;;;9.04;100.00;99093.25;6249741;22;19912;-87
2023/11/14 10:36:53;;;;;;;;;;;;;;;8.71;100.00;99088.63;6250119;22;19923;-85
2023/11/14 10:39:19;;;;;;;;;;;;;;;8.51;100.00;99103.59;6276980;22;20311;-88
2023/11/14 10:41:45;;;;;;;;;;;;;;;8.45;100.00;99105.66;6275582;22;20018;-89
2023/11/14 10:44:12;;;;;;;;;;;;;;;8.26;100.00;99109.09;6249407;22;19944;-87
2023/11/14 10:46:37;;;;;;;;;;;;;;;8.25;100.00;99095.94;6249777;22;19911;-85
2023/11/14 10:49:03;;;;;;;;;;;;;;;8.17;100.00;99076.06;6249410;22;19918;-87
2023/11/14 10:51:33;;;;;;;;;;;;;;;8.13;100.00;99070.97;6276880;22;19921;-84
2023/11/14 10:53:59;;;;;;;;;;;;;;;8.11;100.00;99076.31;6249163;22;20314;-81
2023/11/14 10:56:27;;;;;;;;;;;;;;;7.90;100.00;99072.00;6274636;22;19961;-85
2023/11/14 10:58:54;;;;;;;;;;;;;;;7.94;100.00;99070.91;6276345;22;19966;-83
2023/11/14 11:01:21;;;;;;;;;;;;;;;8.00;100.00;99068.88;6249742;22;19923;-87
2023/11/14 11:03:47;;;;;;;;;;;;;;;8.08;100.00;99071.19;6276683;22;19922;-87
2023/11/14 11:06:12;;;;;;;;;;;;;;;8.12;100.00;99061.34;6249442;22;19911;-86
2023/11/14 11:08:37;;;;;;;;;;;;;;;8.07;100.00;99048.34;6249948;22;19939;-84
2023/11/14 11:11:06;;;;;;;;;;;;;;;8.04;100.00;99060.81;6275098;22;19965;-84
2023/11/14 11:13:31;;;;;;;;;;;;;;;10.59;100.00;99060.72;6275835;22;19994;-84
2023/11/14 11:15:57;;;;;;;;;;;;;;;9.96;100.00;99051.66;6275230;22;19911;-84
2023/11/14 11:18:33;;;;;;;;;;;;;;;8.66;100.00;99040.44;6276253;22;19923;-84
2023/11/14 11:21:08;;;;;;;;;;;;;;;8.40;100.00;99042.47;6275587;22;19923;-86
2023/11/14 11:23:54;;;;;;;;;;;;;;;8.44;100.00;99045.84;6248877;22;19911;-83
2023/11/14 11:26:19;;;;;;;;;;;;;;;8.36;100.00;99033.84;6274453;22;19911;-84
2023/11/14 11:28:44;;;;;;;;;;;;;;;8.32;100.00;99015.59;6276294;22;20220;-86
2023/11/14 11:31:11;;;;;;;;;;;;;;;8.17;100.00;99015.34;6249401;22;19919;-84
2023/11/14 11:33:36;;;;;;;;;;;;;;;8.23;100.00;99005.44;6276404;22;19919;-88
2023/11/14 11:36:20;;;;;;;;;;;;;;;8.23;100.00;99005.44;6276454;22;20239;-87
2023/11/14 11:38:54;;;;;;;;;;;;;;;8.25;100.00;99008.84;6276456;22;19911;-85
2023/11/14 11:41:20;;;;;;;;;;;;;;;8.13;100.00;99000.56;6275082;22;19953;-84
2023/11/14 11:43:57;;;;;;;;;;;;;;;8.16;100.00;98994.31;6249063;22;19911;-83
2023/11/14 11:46:31;;;;;;;;;;;;;;;8.15;100.00;98997.88;6276165;22;19911;-88
2023/11/14 11:48:57;;;;;;;;;;;;;;;7.99;100.00;99003.84;6248217;22;20235;-86
2023/11/14 11:51:24;;;;;;;;;;;;;;;8.17;100.00;99004.81;6248724;22;19915;-85
2023/11/14 11:53:50;;;;;;;;;;;;;;;8.05;100.00;98997.44;6276417;22;19922;-86
2023/11/14 11:56:38;;;;;;;;;;;;;;;8.09;100.00;99000.78;6246858;22;20309;-84
2023/11/14 11:59:03;;;;;;;;;;;;;;;8.14;100.00;98989.09;6275922;22;19919;-86
2023/11/14 12:01:29;;;;;;;;;;;;;;;8.29;100.00;98970.84;6274917;22;19949;-87
2023/11/14 12:04:02;;;;;;;;;;;;;;;8.24;100.00;98976.34;6248607;22;20297;-86
2023/11/14 12:06:27;;;;;;;;;;;;;;;8.31;100.00;98998.91;6275929;22;20224;-87
2023/11/14 12:08:54;;;;;;;;;;;;;;;8.16;100.00;98979.31;6276212;22;19994;-82
2023/11/14 12:11:19;;;;;;;;;;;;;;;8.16;100.00;98975.84;6247583;22;19926;-85
2023/11/14 12:13:53;;;;;;;;;;;;;;;8.39;100.00;98982.69;6248787;22;19919;-86
2023/11/14 12:16:28;;;;;;;;;;;;;;;8.15;100.00;98980.28;6275743;22;19911;-88
2023/11/14 12:18:54;;;;;;;;;;;;;;;8.08;100.00;98970.06;6248842;22;19915;-85
2023/11/14 12:21:20;;;;;;;;;;;;;;;8.17;100.00;98973.13;6275852;22;20280;-87
2023/11/14 12:23:47;;;;;;;;;;;;;;;8.02;100.00;98976.47;6285926;22;20341;-88
2023/11/14 12:26:13;;;;;;;;;;;;;;;8.18;100.00;98980.13;6274667;22;19944;-86
2023/11/14 12:28:39;;;;;;;;;;;;;;;8.14;100.00;98975.06;6276028;22;19953;-87
2023/11/14 12:31:07;;;;;;;;;;;;;;;8.30;100.00;98970.78;6248997;22;19911;-85
2023/11/14 12:33:42;;;;;;;;;;;;;;;8.36;100.00;98959.94;6275836;22;20020;-87
2023/11/14 12:36:07;;;;;;;;;;;;;;;8.16;100.00;98958.22;6249156;22;19911;-82
2023/11/14 12:38:37;;;;;;;;;;;;;;;8.10;100.00;98942.66;6275105;22;19915;-84
2023/11/14 12:41:28;;;;;;;;;;;;;;;8.36;100.00;98943.25;6274591;22;19918;-86
2023/11/14 12:43:53;;;;;;;;;;;;;;;8.39;100.00;98939.59;6275605;22;20056;-86
2023/11/14 12:46:26;;;;;;;;;;;;;;;8.43;100.00;98927.97;6275676;22;19957;-87
2023/11/14 12:49:04;;;;;;;;;;;;;;;8.11;100.00;98930.34;6275801;22;19915;-87
2023/11/14 12:51:30;;;;;;;;;;;;;;;7.98;100.00;98924.78;6248048;22;19911;-86
2023/11/14 12:53:55;;;;;;;;;;;;;;;8.19;100.00;98915.84;6275779;22;19918;-84
2023/11/14 12:56:21;;;;;;;;;;;;;;;8.42;100.00;98916.53;6274279;22;19916;-86
2023/11/14 12:58:46;;;;;;;;;;;;;;;8.16;100.00;98918.63;6247725;22;19999;-86
2023/11/14 13:01:12;;;;;;;;;;;;;;;8.26;100.00;98897.09;6275215;22;19912;-84
2023/11/14 13:03:37;;;;;;;;;;;;;;;8.12;100.00;98901.25;6275830;22;19911;-86
2023/11/14 13:06:03;;;;;;;;;;;;;;;8.18;100.00;98898.31;6248577;22;20348;-86
2023/11/14 13:08:28;;;;;;;;;;;;;;;8.32;100.00;98894.16;6275612;22;19953;-85
2023/11/14 13:10:54;;;;;;;;;;;;;;;8.42;100.00;98895.41;6274341;22;19986;-89
2023/11/14 13:13:19;;;;;;;;;;;;;;;8.25;100.00;98887.47;6248465;22;19911;-84
2023/11/14 13:15:44;;;;;;;;;;;;;;;8.43;100.00;98883.97;6275711;22;20303;-86
2023/11/14 13:18:10;;;;;;;;;;;;;;;8.27;100.00;98875.06;6275479;22;19915;-85
2023/11/14 13:20:35;;;;;;;;;;;;;;;8.18;100.00;98871.94;6275743;22;19923;-85
2023/11/14 13:23:09;;;;;;;;;;;;;;;8.20;100.00;98885.06;6275910;22;19990;-88
2023/11/14 13:25:34;;;;;;;;;;;;;;;8.32;100.00;98867.78;6275115;22;19911;-84
2023/11/14 13:27:59;;;;;;;;;;;;;;;8.30;100.00;98870.47;6275605;22;20513;-86
2023/11/14 13:30:25;;;;;;;;;;;;;;;8.41;100.00;98856.78;6275756;22;19984;-87
2023/11/14 13:32:50;;;;;;;;;;;;;;;8.18;100.00;98861.38;6275752;22;19961;-87
2023/11/14 13:35:15;;;;;;;;;;;;;;;8.27;100.00;98859.22;6247574;22;20323;-87
2023/11/14 13:37:41;;;;;;;;;;;;;;;8.27;100.00;98848.66;6275176;22;20274;-86
2023/11/14 13:40:08;;;;;;;;;;;;;;;8.24;100.00;98857.56;6275503;22;19911;-86
2023/11/14 13:42:34;;;;;;;;;;;;;;;8.37;100.00;98855.19;6245218;22;20421;-85
2023/11/14 13:45:00;;;;;;;;;;;;;;;8.33;100.00;98849.22;6275466;22;19911;-89
2023/11/14 13:47:25;;;;;;;;;;;;;;;8.21;100.00;98827.84;6275784;22;19911;-87
2023/11/14 13:49:50;;;;;;;;;;;;;;;8.46;100.00;98831.03;6248418;22;19919;-87
2023/11/14 13:52:15;;;;;;;;;;;;;;;8.38;100.00;98835.81;6275977;22;19939;-92
2023/11/14 13:54:41;;;;;;;;;;;;;;;8.41;100.00;98833.00;6248364;22;19919;-88
2023/11/14 13:57:06;;;;;;;;;;;;;;;8.22;100.00;98829.53;6248238;22;19918;-83
2023/11/14 13:59:33;;;;;;;;;;;;;;;8.27;100.00;98832.84;6277358;22;19957;-86
2023/11/14 14:01:59;;;;;;;;;;;;;;;8.37;100.00;98829.66;6277423;22;19915;-88
2023/11/14 14:04:24;;;;;;;;;;;;;;;8.34;100.00;98816.63;6250240;22;19957;-90
2023/11/14 14:06:49;;;;;;;;;;;;;;;8.51;100.00;98801.75;6277264;22;20324;-83
2023/11/14 14:09:16;;;;;;;;;;;;;;;8.29;100.00;98800.13;6277394;22;20390;-83
2023/11/14 14:11:41;;;;;;;;;;;;;;;8.49;100.00;98804.47;6248791;22;19919;-90
2023/11/14 14:14:06;;;;;;;;;;;;;;;8.34;100.00;98799.91;6275924;22;19946;-85
2023/11/14 14:16:32;;;;;;;;;;;;;;;8.47;100.00;98801.06;6249852;22;19915;-87
2023/11/14 14:18:58;;;;;;;;;;;;;;;8.36;100.00;98801.56;6249349;22;19998;-82
2023/11/14 14:21:26;;;;;;;;;;;;;;;8.35;100.00;98794.56;6276737;22;20306;-86
2023/11/14 14:23:51;;;;;;;;;;;;;;;8.39;100.00;98789.97;6276889;22;20023;-86
2023/11/14 14:26:16;;;;;;;;;;;;;;;8.45;100.00;98784.44;6275259;22;20300;-87
2023/11/14 14:28:42;;;;;;;;;;;;;;;8.44;100.00;98774.81;6276648;22;19915;-87
2023/11/14 14:31:08;;;;;;;;;;;;;;;8.58;100.00;98775.91;6276834;22;19919;-87
2023/11/14 14:33:33;;;;;;;;;;;;;;;8.62;100.00;98775.66;6249954;22;19918;-88
2023/11/14 14:35:58;;;;;;;;;;;;;;;8.50;100.00;98769.25;6249726;22;19911;-86
2023/11/14 14:38:24;;;;;;;;;;;;;;;8.43;100.00;98765.19;6277202;22;20607;-87
2023/11/14 14:40:50;;;;;;;;;;;;;;;8.41;100.00;98751.19;6248129;22;19911;-87
2023/11/14 14:43:15;;;;;;;;;;;;;;;8.39;100.00;98746.91;6277369;22;20013;-87
2023/11/14 14:45:42;;;;;;;;;;;;;;;8.39;100.00;98738.97;6276463;22;19911;-86
2023/11/14 14:48:07;;;;;;;;;;;;;;;8.34;100.00;98740.09;6249436;22;19911;-87
2023/11/14 14:50:32;;;;;;;;;;;;;;;8.21;100.00;98738.97;6276098;22;19943;-87
2023/11/14 14:52:58;;;;;;;;;;;;;;;8.24;100.00;98727.41;6276537;22;20320;-86
2023/11/14 14:55:23;;;;;;;;;;;;;;;8.43;100.00;98717.66;6249008;22;19938;-86
2023/11/14 14:57:53;;;;;;;;;;;;;;;8.45;100.00;98717.59;6274657;22;19912;-89
2023/11/14 15:00:20;;;;;;;;;;;;;;;8.39;100.00;98702.03;6276305;22;20307;-87
2023/11/14 15:02:46;;;;;;;;;;;;;;;8.51;100.00;98689.09;6249258;22;20011;-87
2023/11/14 15:05:12;;;;;;;;;;;;;;;8.39;100.00;98673.00;6275615;22;19946;-91
2023/11/14 15:07:37;;;;;;;;;;;;;;;8.46;100.00;98675.28;6276101;22;19916;-88
2023/11/14 15:10:05;;;;;;;;;;;;;;;8.39;100.00;98667.72;6251737;22;20319;-89
2023/11/14 15:12:30;;;;;;;;;;;;;;;8.42;100.00;98668.41;6275737;22;19915;-92
2023/11/14 15:14:55;;;;;;;;;;;;;;;8.61;100.00;98659.56;6276788;22;20333;-88
2023/11/14 15:17:23;;;;;;;;;;;;;;;8.54;100.00;98662.53;6249127;22;19950;-88
2023/11/14 15:19:49;;;;;;;;;;;;;;;8.65;100.00;98656.69;6249427;22;19922;-90
2023/11/14 15:22:14;;;;;;;;;;;;;;;8.51;100.00;98649.47;6276664;22;19915;-91
2023/11/14 15:24:40;;;;;;;;;;;;;;;8.44;100.00;98650.75;6275449;22;19915;-87
2023/11/14 15:27:06;;;;;;;;;;;;;;;8.49;100.00;98654.00;6274860;22;19915;-89
2023/11/14 15:29:31;;;;;;;;;;;;;;;8.46;100.00;98653.31;6276051;22;19915;-88
2023/11/14 15:31:56;;;;;;;;;;;;;;;8.61;100.00;98643.72;6276194;22;19998;-86
2023/11/14 15:34:22;;;;;;;;;;;;;;;8.65;100.00;98642.63;6276205;22;20007;-85
2023/11/14 15:36:47;;;;;;;;;;;;;;;8.87;100.00;98640.53;6276605;22;20238;-90
2023/11/14 15:39:13;;;;;;;;;;;;;;;8.79;100.00;98639.22;6275857;22;19918;-90
2023/11/14 15:41:39;;;;;;;;;;;;;;;8.84;100.00;98627.50;6274156;22;19951;-86
2023/11/14 15:44:04;;;;;;;;;;;;;;;8.84;100.00;98632.78;6276166;22;19945;-91
2023/11/14 15:46:29;;;;;;;;;;;;;;;8.65;100.00;98629.44;6276426;22;20319;-85
2023/11/14 15:48:55;;;;;;;;;;;;;;;8.84;100.00;98627.50;6276757;22;19994;-90
2023/11/14 15:51:20;;;;;;;;;;;;;;;8.52;100.00;98622.16;6276659;22;20320;-88
2023/11/14 15:53:47;;;;;;;;;;;;;;;8.68;100.00;98621.31;6276707;22;19918;-83
2023/11/14 15:56:12;;;;;;;;;;;;;;;8.59;100.00;98620.03;6274375;22;19912;-87
2023/11/14 15:58:38;;;;;;;;;;;;;;;8.70;100.00;98625.59;6275952;22;19922;-88
2023/11/14 16:01:03;;;;;;;;;;;;;;;8.53;100.00;98633.56;6275906;22;19918;-87
2023/11/14 16:03:34;;;;;;;;;;;;;;;8.61;100.00;98625.25;6275970;22;19960;-86
2023/11/14 16:06:02;;;;;;;;;;;;;;;8.66;100.00;98633.75;6276015;22;19989;-89
2023/11/14 16:08:27;;;;;;;;;;;;;;;8.45;100.00;98626.03;6275299;22;19911;-85
2023/11/14 16:10:52;;;;;;;;;;;;;;;8.35;100.00;98625.63;6273631;22;19911;-86
2023/11/14 16:13:17;;;;;;;;;;;;;;;8.39;100.00;98630.75;6275897;22;19922;-85
2023/11/14 16:15:43;;;;;;;;;;;;;;;8.47;100.00;98634.75;6275661;22;19912;-84
2023/11/14 16:18:08;;;;;;;;;;;;;;;8.47;100.00;98624.19;6270321;22;19924;-84
2023/11/14 16:20:35;;;;;;;;;;;;;;;8.49;100.00;98627.59;6244353;23;19942;-85
2023/11/14 16:23:00;;;;;;;;;;;;;;;8.43;100.00;98614.72;6244059;23;19916;-83
2023/11/14 16:25:26;;;;;;;;;;;;;;;8.57;100.00;98613.13;6244109;23;19914;-86
2023/11/14 16:27:52;;;;;;;;;;;;;;;8.51;100.00;98611.69;6242495;23;19922;-85
2023/11/14 16:30:17;;;;;;;;;;;;;;;8.96;100.00;98614.56;6217921;23;20227;-85
2023/11/14 16:32:43;;;;;;;;;;;;;;;8.90;100.00;98616.59;6244480;23;20286;-84
2023/11/14 16:35:08;;;;;;;;;;;;;;;8.59;100.00;98622.69;6244997;23;19918;-85
2023/11/14 16:37:33;;;;;;;;;;;;;;;8.59;100.00;98627.13;6243334;23;19907;-82
2023/11/14 16:39:59;;;;;;;;;;;;;;;8.58;100.00;98635.97;6243657;23;19911;-84
2023/11/14 16:42:24;;;;;;;;;;;;;;;8.50;100.00;98626.66;6243148;23;19911;-84
2023/11/14 16:44:50;;;;;;;;;;;;;;;8.58;100.00;98618.31;6245179;23;19919;-86
2023/11/14 16:47:15;;;;;;;;;;;;;;;8.58;100.00;98615.69;6245305;23;20308;-88
2023/11/14 16:49:41;;;;;;;;;;;;;;;8.72;100.00;98609.66;6244447;23;20320;-86
2023/11/14 16:52:08;;;;;;;;;;;;;;;8.81;100.00;98595.97;6244288;23;19911;-84
2023/11/14 16:54:33;;;;;;;;;;;;;;;8.84;100.00;98609.00;6244255;23;19915;-85
2023/11/14 16:56:58;;;;;;;;;;;;;;;8.91;100.00;98605.06;6242967;23;19923;-87
2023/11/14 16:59:24;;;;;;;;;;;;;;;8.91;100.00;98598.94;6245226;23;20588;-82
2023/11/14 17:01:55;;;;;;;;;;;;;;;8.99;100.00;98607.31;6245232;23;20021;-84
2023/11/14 17:04:20;;;;;;;;;;;;;;;9.00;100.00;98613.44;6245010;23;19918;-86
2023/11/14 17:06:46;;;;;;;;;;;;;;;8.81;100.00;98611.81;6244912;23;19920;-86
2023/11/14 17:09:11;;;;;;;;;;;;;;;8.68;100.00;98606.34;6245289;23;19926;-84
2023/11/14 17:11:36;;;;;;;;;;;;;;;8.83;100.00;98603.81;6217257;23;19920;-85
2023/11/14 17:14:01;;;;;;;;;;;;;;;8.84;100.00;98598.44;6244376;23;19918;-86
2023/11/14 17:16:26;;;;;;;;;;;;;;;8.85;100.00;98602.78;6245060;23;20271;-87
2023/11/14 17:18:52;;;;;;;;;;;;;;;8.85;100.00;98596.66;6232256;22;19916;-91
2023/11/14 17:21:19;;;;;;;;;;;;;;;8.87;100.00;98605.31;6275379;22;19918;-85
2023/11/14 17:23:44;;;;;;;;;;;;;;;8.72;100.00;98610.50;6274640;22;20512;-87
2023/11/14 17:26:10;;;;;;;;;;;;;;;8.72;100.00;98612.31;6246870;22;19952;-86
2023/11/14 17:28:36;;;;;;;;;;;;;;;8.73;100.00;98619.31;6275755;22;19919;-83
2023/11/14 17:31:02;;;;;;;;;;;;;;;8.74;100.00;98628.91;6278824;22;19937;-84
2023/11/14 17:33:27;;;;;;;;;;;;;;;8.56;100.00;98619.34;6250814;22;19918;-87
2023/11/14 17:35:52;;;;;;;;;;;;;;;8.60;100.00;98623.53;6277425;22;19916;-82
2023/11/14 17:38:18;;;;;;;;;;;;;;;8.69;100.00;98613.31;6277509;22;19955;-85
2023/11/14 17:40:43;;;;;;;;;;;;;;;8.81;100.00;98606.53;6249011;22;20235;-85
2023/11/14 17:43:08;;;;;;;;;;;;;;;8.80;100.00;98610.09;6277657;22;20239;-85
2023/11/14 17:45:36;;;;;;;;;;;;;;;8.73;100.00;98612.22;6277476;22;19994;-85
2023/11/14 17:48:02;;;;;;;;;;;;;;;8.66;100.00;98615.28;6250816;22;19922;-89
2023/11/14 17:50:28;;;;;;;;;;;;;;;8.77;100.00;98597.06;6277502;22;19911;-87
2023/11/14 17:52:53;;;;;;;;;;;;;;;8.90;100.00;98608.69;6277863;22;19914;-85
2023/11/14 17:55:19;;;;;;;;;;;;;;;9.00;100.00;98608.16;6252200;22;19915;-84
2023/11/14 17:57:44;;;;;;;;;;;;;;;8.95;100.00;98600.50;6276489;22;19986;-87
2023/11/14 18:00:13;;;;;;;;;;;;;;;8.97;100.00;98605.69;6277499;22;19915;-84
2023/11/14 18:02:39;;;;;;;;;;;;;;;8.91;100.00;98602.44;6250582;22;19915;-84
2023/11/14 18:05:05;;;;;;;;;;;;;;;8.84;100.00;98606.38;6277190;22;19911;-85
2023/11/14 18:07:30;;;;;;;;;;;;;;;8.70;100.00;98604.47;6277231;22;20247;-89
2023/11/14 18:09:55;;;;;;;;;;;;;;;8.81;100.00;98611.81;6250352;22;19915;-86
2023/11/14 18:12:21;;;;;;;;;;;;;;;8.89;100.00;98614.88;6275638;22;19923;-84
2023/11/14 18:14:46;;;;;;;;;;;;;;;8.80;100.00;98612.75;6277352;22;19964;-86
2023/11/14 18:17:12;;;;;;;;;;;;;;;8.88;100.00;98607.88;6250273;22;20315;-86
2023/11/14 18:19:38;;;;;;;;;;;;;;;8.78;100.00;98614.63;6252439;22;19919;-86
2023/11/14 18:22:03;;;;;;;;;;;;;;;8.68;100.00;98629.25;6219196;23;19915;-84
2023/11/14 18:24:29;;;;;;;;;;;;;;;8.69;100.00;98623.88;6246970;23;19917;-84
2023/11/14 18:26:54;;;;;;;;;;;;;;;8.65;100.00;98637.34;6245563;23;19927;-79
2023/11/14 18:29:20;;;;;;;;;;;;;;;8.73;100.00;98651.00;6246874;23;19911;-83
2023/11/14 18:31:47;;;;;;;;;;;;;;;8.88;100.00;98642.22;6218604;23;19919;-83
2023/11/14 18:34:14;;;;;;;;;;;;;;;8.67;100.00;98638.97;6246306;23;19974;-85
2023/11/14 18:36:40;;;;;;;;;;;;;;;8.67;100.00;98646.88;6246212;23;20003;-87
2023/11/14 18:39:06;;;;;;;;;;;;;;;8.68;100.00;98645.09;6247643;23;19947;-84
2023/11/14 18:41:31;;;;;;;;;;;;;;;8.79;100.00;98642.75;6218990;23;19966;-84
2023/11/14 18:43:56;;;;;;;;;;;;;;;8.82;100.00;98653.16;6246553;23;19950;-87
2023/11/14 18:46:21;;;;;;;;;;;;;;;8.74;100.00;98655.31;6219626;23;19965;-86
2023/11/14 18:48:50;;;;;;;;;;;;;;;8.81;100.00;98664.63;6220309;23;19947;-86
2023/11/14 18:51:16;;;;;;;;;;;;;;;8.75;100.00;98670.25;6246488;23;19957;-86
2023/11/14 18:53:41;;;;;;;;;;;;;;;8.77;100.00;98693.94;6246458;23;19951;-87
2023/11/14 18:56:07;;;;;;;;;;;;;;;8.91;100.00;98675.56;6245043;23;20261;-84
2023/11/14 18:58:32;;;;;;;;;;;;;;;8.86;100.00;98667.03;6246322;23;19998;-87
2023/11/14 19:01:02;;;;;;;;;;;;;;;8.81;100.00;98677.00;6219905;23;19918;-85
2023/11/14 19:03:28;;;;;;;;;;;;;;;8.83;100.00;98694.47;6246568;23;20266;-88
2023/11/14 19:05:53;;;;;;;;;;;;;;;8.87;100.00;98688.09;6218757;23;19912;-87
2023/11/14 19:08:18;;;;;;;;;;;;;;;8.81;100.00;98693.69;6219838;23;19969;-85
2023/11/14 19:10:43;;;;;;;;;;;;;;;9.03;100.00;98700.47;6244726;23;19940;-84
2023/11/14 19:13:09;;;;;;;;;;;;;;;8.95;100.00;98694.75;6246243;23;19919;-87
2023/11/14 19:15:34;;;;;;;;;;;;;;;9.05;100.00;98703.91;6219257;23;20005;-85
2023/11/14 19:18:00;;;;;;;;;;;;;;;9.08;100.00;98709.84;6223192;22;19912;-84
2023/11/14 19:20:25;;;;;;;;;;;;;;;9.28;100.00;98705.28;6277030;22;20239;-84
2023/11/14 19:22:50;;;;;;;;;;;;;;;9.24;100.00;98706.41;6249619;22;19919;-85
2023/11/14 19:25:16;;;;;;;;;;;;;;;9.06;100.00;98722.31;6276635;22;19915;-85
2023/11/14 19:27:42;;;;;;;;;;;;;;;9.26;100.00;98729.16;6275028;22;19915;-85
2023/11/14 19:30:09;;;;;;;;;;;;;;;9.14;100.00;98743.00;6249470;22;19934;-85
2023/11/14 19:32:35;;;;;;;;;;;;;;;9.04;100.00;98734.72;6276675;22;20489;-85
2023/11/14 19:35:04;;;;;;;;;;;;;;;8.92;100.00;98735.41;6249204;22;19911;-85
2023/11/14 19:37:29;;;;;;;;;;;;;;;8.90;100.00;98747.81;6276426;22;20342;-84
2023/11/14 19:39:56;;;;;;;;;;;;;;;9.06;100.00;98753.16;6249377;22;19915;-86
2023/11/14 19:42:22;;;;;;;;;;;;;;;9.03;100.00;98754.19;6275324;22;19922;-88
2023/11/14 19:44:48;;;;;;;;;;;;;;;9.01;100.00;98741.97;6249358;22;20338;-87
2023/11/14 19:47:14;;;;;;;;;;;;;;;8.94;100.00;98746.75;6276912;22;20222;-89
2023/11/14 19:49:40;;;;;;;;;;;;;;;9.17;100.00;98745.50;6276430;22;19912;-84
2023/11/14 19:52:05;;;;;;;;;;;;;;;9.22;100.00;98747.91;6276749;22;19957;-84
2023/11/14 19:54:30;;;;;;;;;;;;;;;9.14;100.00;98758.03;6276253;22;19911;-85
2023/11/14 19:56:56;;;;;;;;;;;;;;;9.08;100.00;98761.88;6274990;22;20243;-84
2023/11/14 19:59:21;;;;;;;;;;;;;;;9.20;100.00;98774.41;6249457;22;19985;-84
2023/11/14 20:01:47;;;;;;;;;;;;;;;9.21;100.00;98770.00;6276171;22;19915;-85
2023/11/14 20:04:14;;;;;;;;;;;;;;;9.27;100.00;98772.31;6276009;22;19908;-83
2023/11/14 20:06:40;;;;;;;;;;;;;;;9.23;100.00;98774.25;6276102;22;20327;-87
2023/11/14 20:09:05;;;;;;;;;;;;;;;9.17;100.00;98781.66;6249162;22;19918;-83
2023/11/14 20:11:30;;;;;;;;;;;;;;;9.19;100.00;98790.34;6274628;22;19914;-85
2023/11/14 20:13:56;;;;;;;;;;;;;;;9.13;100.00;98802.13;6276174;22;20334;-83
2023/11/14 20:16:21;;;;;;;;;;;;;;;9.22;100.00;98795.47;6276159;22;19917;-84
2023/11/14 20:18:47;;;;;;;;;;;;;;;9.23;100.00;98792.75;6262080;22;20497;-84
2023/11/14 20:21:12;;;;;;;;;;;;;;;9.13;100.00;98806.56;6245369;23;19966;-88
2023/11/14 20:23:37;;;;;;;;;;;;;;;9.24;100.00;98805.03;6245443;23;20316;-84
2023/11/14 20:26:03;;;;;;;;;;;;;;;9.22;100.00;98812.22;6243784;23;20312;-86
2023/11/14 20:28:30;;;;;;;;;;;;;;;9.19;100.00;98822.94;6245521;23;19947;-85
2023/11/14 20:30:55;;;;;;;;;;;;;;;9.17;100.00;98821.28;6245172;23;19911;-85
2023/11/14 20:33:20;;;;;;;;;;;;;;;9.18;100.00;98823.84;6245093;23;19922;-83
2023/11/14 20:35:46;;;;;;;;;;;;;;;9.23;100.00;98824.47;6245487;23;19942;-86
2023/11/14 20:38:11;;;;;;;;;;;;;;;9.28;100.00;98837.44;6245086;23;19919;-85
2023/11/14 20:40:36;;;;;;;;;;;;;;;9.26;100.00;98853.38;6244385;23;20346;-88
2023/11/14 20:43:02;;;;;;;;;;;;;;;9.23;100.00;98853.53;6245096;23;19950;-85
2023/11/14 20:45:27;;;;;;;;;;;;;;;9.22;100.00;98836.00;6245414;23;20312;-86
2023/11/14 20:47:53;;;;;;;;;;;;;;;9.19;100.00;98859.94;6218200;23;19952;-85
2023/11/14 20:50:18;;;;;;;;;;;;;;;9.24;100.00;98873.78;6245147;23;20365;-86
2023/11/14 20:52:45;;;;;;;;;;;;;;;9.22;100.00;98874.78;6245075;23;20320;-84
2023/11/14 20:55:11;;;;;;;;;;;;;;;9.15;100.00;98879.53;6218284;23;19943;-85
2023/11/14 20:57:36;;;;;;;;;;;;;;;9.19;100.00;98883.72;6243703;23;19912;-85
2023/11/14 21:00:04;;;;;;;;;;;;;;;9.19;100.00;98896.94;6244973;23;19922;-86
2023/11/14 21:02:29;;;;;;;;;;;;;;;9.24;100.00;98902.84;6244920;23;19965;-86
2023/11/14 21:04:54;;;;;;;;;;;;;;;9.19;100.00;98904.00;6244628;23;19994;-85
2023/11/14 21:07:20;;;;;;;;;;;;;;;9.21;100.00;98910.09;6244919;23;19942;-85
2023/11/14 21:09:45;;;;;;;;;;;;;;;9.25;100.00;98907.22;6244984;23;19912;-85
2023/11/14 21:12:10;;;;;;;;;;;;;;;9.18;100.00;98915.53;6243365;23;19915;-86
2023/11/14 21:14:36;;;;;;;;;;;;;;;9.31;100.00;98921.88;6244896;23;20355;-86
2023/11/14 21:17:01;;;;;;;;;;;;;;;9.36;100.00;98913.72;6244887;23;19931;-86
2023/11/14 21:19:27;;;;;;;;;;;;;;;9.31;100.00;98913.94;6266751;22;19915;-88
2023/11/14 21:21:52;;;;;;;;;;;;;;;9.34;100.00;98926.16;6275764;22;19918;-86
2023/11/14 21:24:17;;;;;;;;;;;;;;;9.36;100.00;98924.28;6275575;22;19934;-86
2023/11/14 21:26:42;;;;;;;;;;;;;;;9.29;100.00;98931.69;6274164;22;19947;-85
2023/11/14 21:29:08;;;;;;;;;;;;;;;9.40;100.00;98929.34;6248500;22;20220;-85
2023/11/14 21:31:41;;;;;;;;;;;;;;;9.43;100.00;98929.19;6276001;22;19915;-85
2023/11/14 21:34:06;;;;;;;;;;;;;;;9.45;100.00;98935.25;6275504;22;19999;-84
2023/11/14 21:36:31;;;;;;;;;;;;;;;9.44;100.00;98956.47;6275679;22;19951;-85
2023/11/14 21:38:57;;;;;;;;;;;;;;;9.42;100.00;98945.13;6275878;22;19911;-85
2023/11/14 21:41:22;;;;;;;;;;;;;;;9.43;100.00;98938.91;6247041;22;20026;-86
2023/11/14 21:43:47;;;;;;;;;;;;;;;9.49;100.00;98949.16;6276124;22;19911;-85